sensor_id;sensor_type;location;lat;lon;timestamp;P1;durP1;ratioP1;P2;durP2;ratioP2
65535;SDS011;52145;49.342;9.116;2022-10-22T08:30:30;3.05;;;2.10;;
65535;SDS011;52145;49.342;9.116;2022-10-22T08:32:58;4.95;;;2.15;;
65535;SDS011;52145;49.342;9.116;2022-10-22T08:35:23;4.35;;;1.98;;
65535;SDS011;52145;49.342;9.116;2022-10-22T08:37:49;2.28;;;1.65;;
65535;SDS011;52145;49.342;9.116;2022-10-22T08:40:34;8.02;;;1.60;;
65535;SDS011;52145;49.342;9.116;2022-10-22T08:43:12;6.43;;;1.60;;
65535;SDS011;52145;49.342;9.116;2022-10-22T08:50:53;4.50;;;1.70;;
65535;SDS011;52145;49.342;9.116;2022-10-22T08:53:22;6.20;;;1.90;;
65535;SDS011;52145;49.342;9.116;2022-10-22T08:56:10;4.57;;;2.00;;
65535;SDS011;52145;49.342;9.116;2022-10-22T08:58:44;5.47;;;1.80;;
65535;SDS011;52145;49.342;9.116;2022-10-22T09:01:30;4.35;;;1.38;;
65535;SDS011;52145;49.342;9.116;2022-10-22T09:04:45;3.95;;;1.27;;
65535;SDS011;52145;49.342;9.116;2022-10-22T09:06:54;4.45;;;1.75;;
65535;SDS011;52145;49.342;9.116;2022-10-22T09:09:22;5.40;;;1.50;;
65535;SDS011;52145;49.342;9.116;2022-10-22T09:11:52;2.60;;;1.70;;
65535;SDS011;52145;49.342;9.116;2022-10-22T09:14:22;3.60;;;1.95;;
65535;SDS011;52145;49.342;9.116;2022-10-22T09:27:49;4.50;;;1.20;;
65535;SDS011;52145;49.342;9.116;2022-10-22T09:30:23;4.88;;;1.20;;
65535;SDS011;52145;49.342;9.116;2022-10-22T09:32:57;4.55;;;1.38;;
65535;SDS011;52145;49.342;9.116;2022-10-22T09:35:24;3.47;;;1.13;;
65535;SDS011;52145;49.342;9.116;2022-10-22T09:37:52;1.35;;;0.95;;
65535;SDS011;52145;49.342;9.116;2022-10-22T09:40:20;1.08;;;0.90;;
65535;SDS011;52145;49.342;9.116;2022-10-22T09:42:46;4.60;;;1.10;;
65535;SDS011;52145;49.342;9.116;2022-10-22T09:45:20;3.25;;;0.93;;
65535;SDS011;52145;49.342;9.116;2022-10-22T09:47:48;1.70;;;1.45;;
65535;SDS011;52145;49.342;9.116;2022-10-22T09:55:50;2.10;;;0.70;;
65535;SDS011;52145;49.342;9.116;2022-10-22T09:58:18;1.52;;;0.85;;
65535;SDS011;52145;49.342;9.116;2022-10-22T10:00:45;3.22;;;0.80;;
65535;SDS011;52145;49.342;9.116;2022-10-22T10:03:20;1.13;;;0.90;;
65535;SDS011;52145;49.342;9.116;2022-10-22T10:05:48;2.63;;;1.00;;
65535;SDS011;52145;49.342;9.116;2022-10-22T10:08:16;3.35;;;0.90;;
65535;SDS011;52145;49.342;9.116;2022-10-22T10:10:46;1.60;;;0.70;;
65535;SDS011;52145;49.342;9.116;2022-10-22T10:19:31;3.20;;;0.85;;
65535;SDS011;52145;49.342;9.116;2022-10-22T10:22:29;1.00;;;0.52;;
65535;SDS011;52145;49.342;9.116;2022-10-22T10:25:47;3.55;;;1.23;;
65535;SDS011;52145;49.342;9.116;2022-10-22T10:31:09;4.35;;;1.13;;
65535;SDS011;52145;49.342;9.116;2022-10-22T10:39:29;1.13;;;0.70;;
65535;SDS011;52145;49.342;9.116;2022-10-22T10:47:11;2.00;;;0.70;;
65535;SDS011;52145;49.342;9.116;2022-10-22T10:49:58;4.03;;;0.73;;
65535;SDS011;52145;49.342;9.116;2022-10-22T10:52:35;2.25;;;0.90;;
65535;SDS011;52145;49.342;9.116;2022-10-22T10:55:21;3.85;;;1.50;;
65535;SDS011;52145;49.342;9.116;2022-10-22T10:58:00;3.27;;;0.70;;
65535;SDS011;52145;49.342;9.116;2022-10-22T11:00:51;3.42;;;1.10;;
65535;SDS011;52145;49.342;9.116;2022-10-22T11:06:08;10.38;;;7.40;;
65535;SDS011;52145;49.342;9.116;2022-10-22T11:08:39;4.40;;;0.82;;
65535;SDS011;52145;49.342;9.116;2022-10-22T11:11:21;3.95;;;1.15;;
65535;SDS011;52145;49.342;9.116;2022-10-22T11:19:31;2.20;;;0.85;;
65535;SDS011;52145;49.342;9.116;2022-10-22T11:25:13;4.43;;;1.00;;
65535;SDS011;52145;49.342;9.116;2022-10-22T11:30:23;4.45;;;1.20;;
65535;SDS011;52145;49.342;9.116;2022-10-22T11:32:57;2.45;;;1.25;;
65535;SDS011;52145;49.342;9.116;2022-10-22T11:35:27;3.53;;;1.17;;
65535;SDS011;52145;49.342;9.116;2022-10-22T11:37:56;4.70;;;0.93;;
65535;SDS011;52145;49.342;9.116;2022-10-22T11:43:03;3.05;;;1.15;;
65535;SDS011;52145;49.342;9.116;2022-10-22T11:45:40;6.30;;;1.20;;
65535;SDS011;52145;49.342;9.116;2022-10-22T11:50:53;2.10;;;1.20;;
65535;SDS011;52145;49.342;9.116;2022-10-22T11:55:50;2.95;;;1.02;;
65535;SDS011;52145;49.342;9.116;2022-10-22T12:11:15;2.58;;;1.15;;
65535;SDS011;52145;49.342;9.116;2022-10-22T12:16:36;2.75;;;0.80;;
65535;SDS011;52145;49.342;9.116;2022-10-22T12:19:06;1.60;;;0.82;;
65535;SDS011;52145;49.342;9.116;2022-10-22T12:21:37;6.40;;;1.65;;
65535;SDS011;52145;49.342;9.116;2022-10-22T12:24:05;2.80;;;1.15;;
65535;SDS011;52145;49.342;9.116;2022-10-22T12:26:32;4.53;;;1.25;;
65535;SDS011;52145;49.342;9.116;2022-10-22T12:29:02;4.57;;;1.15;;
65535;SDS011;52145;49.342;9.116;2022-10-22T12:31:35;6.05;;;0.90;;
65535;SDS011;52145;49.342;9.116;2022-10-22T12:34:03;3.03;;;1.02;;
65535;SDS011;52145;49.342;9.116;2022-10-22T12:36:29;4.25;;;1.40;;
65535;SDS011;52145;49.342;9.116;2022-10-22T12:39:00;2.10;;;1.00;;
65535;SDS011;52145;49.342;9.116;2022-10-22T12:41:31;2.10;;;1.00;;
65535;SDS011;52145;49.342;9.116;2022-10-22T12:43:59;3.88;;;1.55;;
65535;SDS011;52145;49.342;9.116;2022-10-22T12:46:26;8.57;;;3.42;;
65535;SDS011;52145;49.342;9.116;2022-10-22T12:48:53;7.68;;;2.88;;
65535;SDS011;52145;49.342;9.116;2022-10-22T12:51:20;2.17;;;1.17;;
65535;SDS011;52145;49.342;9.116;2022-10-22T12:53:52;3.15;;;1.30;;
65535;SDS011;52145;49.342;9.116;2022-10-22T12:56:27;3.50;;;1.08;;
65535;SDS011;52145;49.342;9.116;2022-10-22T12:58:57;2.33;;;1.50;;
65535;SDS011;52145;49.342;9.116;2022-10-22T13:01:25;3.42;;;1.23;;
65535;SDS011;52145;49.342;9.116;2022-10-22T13:04:03;3.22;;;0.88;;
65535;SDS011;52145;49.342;9.116;2022-10-22T13:06:42;3.13;;;1.10;;
65535;SDS011;52145;49.342;9.116;2022-10-22T13:09:17;3.63;;;1.38;;
65535;SDS011;52145;49.342;9.116;2022-10-22T13:11:56;2.90;;;1.05;;
65535;SDS011;52145;49.342;9.116;2022-10-22T13:14:32;4.63;;;1.60;;
65535;SDS011;52145;49.342;9.116;2022-10-22T13:22:51;8.07;;;3.42;;
65535;SDS011;52145;49.342;9.116;2022-10-22T13:30:17;5.65;;;1.75;;
65535;SDS011;52145;49.342;9.116;2022-10-22T13:32:47;4.47;;;0.93;;
65535;SDS011;52145;49.342;9.116;2022-10-22T13:35:14;5.32;;;1.60;;
65535;SDS011;52145;49.342;9.116;2022-10-22T13:37:43;8.55;;;4.47;;
65535;SDS011;52145;49.342;9.116;2022-10-22T13:40:12;6.57;;;2.95;;
65535;SDS011;52145;49.342;9.116;2022-10-22T13:42:38;6.30;;;2.42;;
65535;SDS011;52145;49.342;9.116;2022-10-22T13:45:04;5.00;;;1.27;;
65535;SDS011;52145;49.342;9.116;2022-10-22T13:47:30;3.03;;;0.88;;
65535;SDS011;52145;49.342;9.116;2022-10-22T13:50:00;3.60;;;1.10;;
65535;SDS011;52145;49.342;9.116;2022-10-22T13:52:29;2.22;;;0.77;;
65535;SDS011;52145;49.342;9.116;2022-10-22T13:55:10;3.45;;;1.35;;
65535;SDS011;52145;49.342;9.116;2022-10-22T13:57:41;5.43;;;1.48;;
65535;SDS011;52145;49.342;9.116;2022-10-22T14:00:10;5.82;;;1.50;;
65535;SDS011;52145;49.342;9.116;2022-10-22T14:02:43;4.15;;;1.20;;
65535;SDS011;52145;49.342;9.116;2022-10-22T14:05:11;2.75;;;0.80;;
65535;SDS011;52145;49.342;9.116;2022-10-22T14:07:37;5.90;;;1.38;;
65535;SDS011;52145;49.342;9.116;2022-10-22T14:12:58;3.88;;;1.08;;
65535;SDS011;52145;49.342;9.116;2022-10-22T14:15:24;3.63;;;1.15;;
65535;SDS011;52145;49.342;9.116;2022-10-22T14:17:55;5.10;;;1.10;;
65535;SDS011;52145;49.342;9.116;2022-10-22T14:20:27;3.38;;;1.70;;
65535;SDS011;52145;49.342;9.116;2022-10-22T14:22:54;3.78;;;1.50;;
65535;SDS011;52145;49.342;9.116;2022-10-22T14:25:24;6.18;;;2.03;;
65535;SDS011;52145;49.342;9.116;2022-10-22T14:27:50;4.05;;;1.50;;
65535;SDS011;52145;49.342;9.116;2022-10-22T14:30:17;5.65;;;2.00;;
65535;SDS011;52145;49.342;9.116;2022-10-22T14:32:44;3.75;;;1.63;;
65535;SDS011;52145;49.342;9.116;2022-10-22T14:35:12;5.03;;;1.42;;
65535;SDS011;52145;49.342;9.116;2022-10-22T14:37:39;5.60;;;1.15;;
65535;SDS011;52145;49.342;9.116;2022-10-22T14:40:05;3.60;;;1.30;;
65535;SDS011;52145;49.342;9.116;2022-10-22T14:42:32;4.13;;;1.70;;
65535;SDS011;52145;49.342;9.116;2022-10-22T14:45:04;3.30;;;1.00;;
65535;SDS011;52145;49.342;9.116;2022-10-22T14:47:30;3.95;;;1.45;;
65535;SDS011;52145;49.342;9.116;2022-10-22T14:49:56;7.38;;;1.40;;
65535;SDS011;52145;49.342;9.116;2022-10-22T14:52:21;5.72;;;1.30;;
65535;SDS011;52145;49.342;9.116;2022-10-22T14:54:47;4.70;;;1.10;;
65535;SDS011;52145;49.342;9.116;2022-10-22T14:57:13;4.75;;;1.42;;
65535;SDS011;52145;49.342;9.116;2022-10-22T14:59:40;3.72;;;0.85;;
65535;SDS011;52145;49.342;9.116;2022-10-22T15:02:07;2.22;;;1.13;;
65535;SDS011;52145;49.342;9.116;2022-10-22T15:04:36;6.03;;;1.52;;
65535;SDS011;52145;49.342;9.116;2022-10-22T15:07:01;4.63;;;1.00;;
65535;SDS011;52145;49.342;9.116;2022-10-22T15:09:27;6.60;;;1.20;;
65535;SDS011;52145;49.342;9.116;2022-10-22T15:11:53;4.15;;;1.25;;
65535;SDS011;52145;49.342;9.116;2022-10-22T15:14:18;4.88;;;1.13;;
65535;SDS011;52145;49.342;9.116;2022-10-22T15:16:44;6.85;;;1.45;;
65535;SDS011;52145;49.342;9.116;2022-10-22T15:19:09;3.22;;;1.15;;
65535;SDS011;52145;49.342;9.116;2022-10-22T15:21:35;5.50;;;1.33;;
65535;SDS011;52145;49.342;9.116;2022-10-22T15:24:00;4.75;;;0.90;;
65535;SDS011;52145;49.342;9.116;2022-10-22T15:26:26;5.93;;;1.35;;
65535;SDS011;52145;49.342;9.116;2022-10-22T15:28:53;5.75;;;1.58;;
65535;SDS011;52145;49.342;9.116;2022-10-22T15:31:39;6.18;;;1.55;;
65535;SDS011;52145;49.342;9.116;2022-10-22T15:34:08;4.53;;;1.30;;
65535;SDS011;52145;49.342;9.116;2022-10-22T15:36:34;5.88;;;1.77;;
65535;SDS011;52145;49.342;9.116;2022-10-22T15:38:59;5.20;;;1.83;;
65535;SDS011;52145;49.342;9.116;2022-10-22T15:41:29;6.60;;;1.83;;
65535;SDS011;52145;49.342;9.116;2022-10-22T15:43:55;6.15;;;3.15;;
65535;SDS011;52145;49.342;9.116;2022-10-22T15:46:20;11.57;;;6.32;;
65535;SDS011;52145;49.342;9.116;2022-10-22T15:48:46;17.17;;;9.35;;
65535;SDS011;52145;49.342;9.116;2022-10-22T15:51:12;12.38;;;5.90;;
65535;SDS011;52145;49.342;9.116;2022-10-22T15:53:39;9.68;;;6.32;;
65535;SDS011;52145;49.342;9.116;2022-10-22T15:56:05;10.27;;;4.75;;
65535;SDS011;52145;49.342;9.116;2022-10-22T15:58:31;8.48;;;3.97;;
65535;SDS011;52145;49.342;9.116;2022-10-22T16:01:07;11.38;;;3.38;;
65535;SDS011;52145;49.342;9.116;2022-10-22T16:03:34;16.80;;;8.45;;
65535;SDS011;52145;49.342;9.116;2022-10-22T16:06:00;19.20;;;10.18;;
65535;SDS011;52145;49.342;9.116;2022-10-22T16:08:26;16.00;;;9.05;;
65535;SDS011;52145;49.342;9.116;2022-10-22T16:10:52;11.77;;;5.07;;
65535;SDS011;52145;49.342;9.116;2022-10-22T16:13:18;10.27;;;4.68;;
65535;SDS011;52145;49.342;9.116;2022-10-22T16:15:45;8.60;;;3.78;;
65535;SDS011;52145;49.342;9.116;2022-10-22T16:18:11;9.75;;;3.60;;
65535;SDS011;52145;49.342;9.116;2022-10-22T16:20:37;9.40;;;3.28;;
65535;SDS011;52145;49.342;9.116;2022-10-22T16:23:03;16.77;;;5.65;;
65535;SDS011;52145;49.342;9.116;2022-10-22T16:25:29;9.43;;;3.53;;
65535;SDS011;52145;49.342;9.116;2022-10-22T16:27:54;7.28;;;2.63;;
65535;SDS011;52145;49.342;9.116;2022-10-22T16:30:20;7.68;;;2.75;;
65535;SDS011;52145;49.342;9.116;2022-10-22T16:32:45;9.25;;;2.67;;
65535;SDS011;52145;49.342;9.116;2022-10-22T16:35:11;8.00;;;3.03;;
65535;SDS011;52145;49.342;9.116;2022-10-22T16:37:36;6.90;;;2.20;;
65535;SDS011;52145;49.342;9.116;2022-10-22T16:40:02;5.07;;;2.25;;
65535;SDS011;52145;49.342;9.116;2022-10-22T16:42:28;7.20;;;1.70;;
65535;SDS011;52145;49.342;9.116;2022-10-22T16:44:54;7.22;;;2.50;;
65535;SDS011;52145;49.342;9.116;2022-10-22T16:47:19;11.60;;;2.58;;
65535;SDS011;52145;49.342;9.116;2022-10-22T16:49:45;6.43;;;2.55;;
65535;SDS011;52145;49.342;9.116;2022-10-22T16:52:10;9.18;;;2.08;;
65535;SDS011;52145;49.342;9.116;2022-10-22T16:54:36;14.88;;;2.45;;
65535;SDS011;52145;49.342;9.116;2022-10-22T16:57:01;9.00;;;2.28;;
65535;SDS011;52145;49.342;9.116;2022-10-22T16:59:27;6.35;;;2.78;;
65535;SDS011;52145;49.342;9.116;2022-10-22T17:01:52;13.30;;;3.20;;
65535;SDS011;52145;49.342;9.116;2022-10-22T17:04:18;7.75;;;2.17;;
65535;SDS011;52145;49.342;9.116;2022-10-22T17:06:44;14.32;;;2.30;;
65535;SDS011;52145;49.342;9.116;2022-10-22T17:09:10;8.40;;;2.65;;
65535;SDS011;52145;49.342;9.116;2022-10-22T17:11:35;14.07;;;3.53;;
65535;SDS011;52145;49.342;9.116;2022-10-22T17:14:02;10.07;;;2.63;;
65535;SDS011;52145;49.342;9.116;2022-10-22T17:16:28;10.07;;;3.03;;
65535;SDS011;52145;49.342;9.116;2022-10-22T17:18:54;7.57;;;2.50;;
65535;SDS011;52145;49.342;9.116;2022-10-22T17:21:20;6.35;;;2.83;;
65535;SDS011;52145;49.342;9.116;2022-10-22T17:23:46;12.98;;;3.33;;
65535;SDS011;52145;49.342;9.116;2022-10-22T17:26:13;6.07;;;2.58;;
65535;SDS011;52145;49.342;9.116;2022-10-22T17:28:44;10.65;;;2.35;;
65535;SDS011;52145;49.342;9.116;2022-10-22T17:31:15;5.57;;;2.50;;
65535;SDS011;52145;49.342;9.116;2022-10-22T17:33:48;11.80;;;3.58;;
65535;SDS011;52145;49.342;9.116;2022-10-22T17:36:15;7.40;;;2.30;;
65535;SDS011;52145;49.342;9.116;2022-10-22T17:38:42;5.53;;;2.17;;
65535;SDS011;52145;49.342;9.116;2022-10-22T17:41:09;5.90;;;2.38;;
65535;SDS011;52145;49.342;9.116;2022-10-22T17:43:41;10.57;;;2.53;;
65535;SDS011;52145;49.342;9.116;2022-10-22T17:46:07;9.48;;;2.83;;
65535;SDS011;52145;49.342;9.116;2022-10-22T17:48:38;11.15;;;3.20;;
65535;SDS011;52145;49.342;9.116;2022-10-22T17:51:10;7.55;;;2.58;;
65535;SDS011;52145;49.342;9.116;2022-10-22T17:53:38;10.40;;;3.20;;
65535;SDS011;52145;49.342;9.116;2022-10-22T17:56:06;12.30;;;2.85;;
65535;SDS011;52145;49.342;9.116;2022-10-22T17:58:34;7.68;;;2.00;;
65535;SDS011;52145;49.342;9.116;2022-10-22T18:01:01;10.40;;;2.53;;
65535;SDS011;52145;49.342;9.116;2022-10-22T18:03:27;8.18;;;2.58;;
65535;SDS011;52145;49.342;9.116;2022-10-22T18:05:53;9.77;;;2.80;;
65535;SDS011;52145;49.342;9.116;2022-10-22T18:08:18;7.35;;;2.80;;
65535;SDS011;52145;49.342;9.116;2022-10-22T18:10:44;5.88;;;3.30;;
65535;SDS011;52145;49.342;9.116;2022-10-22T18:13:09;11.50;;;2.75;;
65535;SDS011;52145;49.342;9.116;2022-10-22T18:15:35;13.35;;;3.35;;
65535;SDS011;52145;49.342;9.116;2022-10-22T18:18:02;14.77;;;2.83;;
65535;SDS011;52145;49.342;9.116;2022-10-22T18:20:28;13.20;;;3.15;;
65535;SDS011;52145;49.342;9.116;2022-10-22T18:22:54;7.35;;;3.42;;
65535;SDS011;52145;49.342;9.116;2022-10-22T18:25:19;11.07;;;3.45;;
65535;SDS011;52145;49.342;9.116;2022-10-22T18:27:45;8.13;;;3.60;;
65535;SDS011;52145;49.342;9.116;2022-10-22T18:30:11;10.07;;;3.53;;
65535;SDS011;52145;49.342;9.116;2022-10-22T18:32:36;12.23;;;4.15;;
65535;SDS011;52145;49.342;9.116;2022-10-22T18:35:02;10.73;;;4.78;;
65535;SDS011;52145;49.342;9.116;2022-10-22T18:37:28;13.80;;;5.43;;
65535;SDS011;52145;49.342;9.116;2022-10-22T18:39:55;12.57;;;5.18;;
65535;SDS011;52145;49.342;9.116;2022-10-22T18:42:21;12.10;;;4.43;;
65535;SDS011;52145;49.342;9.116;2022-10-22T18:44:48;11.50;;;4.85;;
65535;SDS011;52145;49.342;9.116;2022-10-22T18:47:14;9.23;;;3.47;;
65535;SDS011;52145;49.342;9.116;2022-10-22T18:49:39;8.20;;;3.65;;
65535;SDS011;52145;49.342;9.116;2022-10-22T18:52:05;11.13;;;3.95;;
65535;SDS011;52145;49.342;9.116;2022-10-22T18:54:31;12.10;;;3.85;;
65535;SDS011;52145;49.342;9.116;2022-10-22T18:56:56;13.35;;;3.55;;
65535;SDS011;52145;49.342;9.116;2022-10-22T18:59:23;15.95;;;3.90;;
65535;SDS011;52145;49.342;9.116;2022-10-22T19:01:53;8.07;;;3.17;;
65535;SDS011;52145;49.342;9.116;2022-10-22T19:04:19;9.80;;;3.72;;
65535;SDS011;52145;49.342;9.116;2022-10-22T19:06:45;9.77;;;3.38;;
65535;SDS011;52145;49.342;9.116;2022-10-22T19:09:12;9.05;;;3.58;;
65535;SDS011;52145;49.342;9.116;2022-10-22T19:11:38;7.25;;;3.20;;
65535;SDS011;52145;49.342;9.116;2022-10-22T19:14:04;18.00;;;3.78;;
65535;SDS011;52145;49.342;9.116;2022-10-22T19:16:30;11.00;;;3.60;;
65535;SDS011;52145;49.342;9.116;2022-10-22T19:18:59;13.90;;;3.65;;
65535;SDS011;52145;49.342;9.116;2022-10-22T19:21:30;9.88;;;3.17;;
65535;SDS011;52145;49.342;9.116;2022-10-22T19:23:56;12.80;;;3.75;;
65535;SDS011;52145;49.342;9.116;2022-10-22T19:26:23;8.95;;;3.55;;
65535;SDS011;52145;49.342;9.116;2022-10-22T19:28:50;7.55;;;3.47;;
65535;SDS011;52145;49.342;9.116;2022-10-22T19:31:18;12.90;;;3.55;;
65535;SDS011;52145;49.342;9.116;2022-10-22T19:33:46;13.25;;;4.03;;
65535;SDS011;52145;49.342;9.116;2022-10-22T19:36:12;10.80;;;4.53;;
65535;SDS011;52145;49.342;9.116;2022-10-22T19:38:41;11.95;;;3.50;;
65535;SDS011;52145;49.342;9.116;2022-10-22T19:41:09;8.48;;;4.28;;
65535;SDS011;52145;49.342;9.116;2022-10-22T19:43:38;11.13;;;4.03;;
65535;SDS011;52145;49.342;9.116;2022-10-22T19:46:05;12.80;;;4.80;;
65535;SDS011;52145;49.342;9.116;2022-10-22T19:48:31;10.02;;;4.10;;
65535;SDS011;52145;49.342;9.116;2022-10-22T19:50:57;15.07;;;4.72;;
65535;SDS011;52145;49.342;9.116;2022-10-22T19:53:29;14.30;;;5.13;;
65535;SDS011;52145;49.342;9.116;2022-10-22T19:55:56;9.98;;;4.68;;
65535;SDS011;52145;49.342;9.116;2022-10-22T19:58:22;15.18;;;5.38;;
65535;SDS011;52145;49.342;9.116;2022-10-22T20:00:48;15.50;;;3.95;;
65535;SDS011;52145;49.342;9.116;2022-10-22T20:03:13;10.05;;;3.85;;
65535;SDS011;52145;49.342;9.116;2022-10-22T20:05:39;9.95;;;4.22;;
65535;SDS011;52145;49.342;9.116;2022-10-22T20:08:06;8.85;;;4.55;;
65535;SDS011;52145;49.342;9.116;2022-10-22T20:10:35;12.70;;;4.40;;
65535;SDS011;52145;49.342;9.116;2022-10-22T20:13:00;8.88;;;4.18;;
65535;SDS011;52145;49.342;9.116;2022-10-22T20:15:26;13.43;;;4.88;;
65535;SDS011;52145;49.342;9.116;2022-10-22T20:17:52;11.35;;;4.35;;
65535;SDS011;52145;49.342;9.116;2022-10-22T20:20:18;10.93;;;4.15;;
65535;SDS011;52145;49.342;9.116;2022-10-22T20:22:43;11.73;;;4.22;;
65535;SDS011;52145;49.342;9.116;2022-10-22T20:25:10;10.82;;;4.45;;
65535;SDS011;52145;49.342;9.116;2022-10-22T20:27:36;13.38;;;4.45;;
65535;SDS011;52145;49.342;9.116;2022-10-22T20:30:03;12.68;;;5.03;;
65535;SDS011;52145;49.342;9.116;2022-10-22T20:32:29;16.40;;;5.07;;
65535;SDS011;52145;49.342;9.116;2022-10-22T20:34:55;9.48;;;4.75;;
65535;SDS011;52145;49.342;9.116;2022-10-22T20:37:21;9.60;;;4.28;;
65535;SDS011;52145;49.342;9.116;2022-10-22T20:39:49;13.27;;;4.05;;
65535;SDS011;52145;49.342;9.116;2022-10-22T20:42:15;10.35;;;3.50;;
65535;SDS011;52145;49.342;9.116;2022-10-22T20:44:41;8.20;;;4.30;;
65535;SDS011;52145;49.342;9.116;2022-10-22T20:47:06;10.30;;;3.97;;
65535;SDS011;52145;49.342;9.116;2022-10-22T20:49:33;15.40;;;4.50;;
65535;SDS011;52145;49.342;9.116;2022-10-22T20:51:59;10.88;;;3.40;;
65535;SDS011;52145;49.342;9.116;2022-10-22T20:54:25;12.90;;;4.22;;
65535;SDS011;52145;49.342;9.116;2022-10-22T20:56:51;13.38;;;4.70;;
65535;SDS011;52145;49.342;9.116;2022-10-22T20:59:16;9.63;;;3.90;;
65535;SDS011;52145;49.342;9.116;2022-10-22T21:04:12;13.55;;;4.28;;
65535;SDS011;52145;49.342;9.116;2022-10-22T21:06:38;9.77;;;3.55;;
65535;SDS011;52145;49.342;9.116;2022-10-22T21:09:05;6.18;;;3.40;;
65535;SDS011;52145;49.342;9.116;2022-10-22T21:11:31;10.38;;;3.90;;
65535;SDS011;52145;49.342;9.116;2022-10-22T21:13:57;8.13;;;3.92;;
65535;SDS011;52145;49.342;9.116;2022-10-22T21:16:23;8.73;;;4.03;;
65535;SDS011;52145;49.342;9.116;2022-10-22T21:18:48;11.50;;;4.03;;
65535;SDS011;52145;49.342;9.116;2022-10-22T21:21:14;10.55;;;3.85;;
65535;SDS011;52145;49.342;9.116;2022-10-22T21:23:41;10.82;;;3.95;;
65535;SDS011;52145;49.342;9.116;2022-10-22T21:26:07;7.30;;;3.80;;
65535;SDS011;52145;49.342;9.116;2022-10-22T21:28:33;9.90;;;4.70;;
65535;SDS011;52145;49.342;9.116;2022-10-22T21:31:04;8.13;;;3.70;;
65535;SDS011;52145;49.342;9.116;2022-10-22T21:33:36;12.30;;;4.30;;
65535;SDS011;52145;49.342;9.116;2022-10-22T21:36:03;8.90;;;3.30;;
65535;SDS011;52145;49.342;9.116;2022-10-22T21:38:30;9.90;;;3.85;;
65535;SDS011;52145;49.342;9.116;2022-10-22T21:40:56;12.07;;;3.75;;
65535;SDS011;52145;49.342;9.116;2022-10-22T21:43:21;6.72;;;3.47;;
65535;SDS011;52145;49.342;9.116;2022-10-22T21:45:47;9.00;;;3.90;;
65535;SDS011;52145;49.342;9.116;2022-10-22T21:48:14;14.98;;;4.95;;
65535;SDS011;52145;49.342;9.116;2022-10-22T21:50:40;16.48;;;4.70;;
65535;SDS011;52145;49.342;9.116;2022-10-22T21:53:07;11.75;;;3.63;;
65535;SDS011;52145;49.342;9.116;2022-10-22T21:55:40;11.02;;;3.45;;
65535;SDS011;52145;49.342;9.116;2022-10-22T21:58:06;11.93;;;3.85;;
65535;SDS011;52145;49.342;9.116;2022-10-22T22:00:32;10.05;;;3.75;;
65535;SDS011;52145;49.342;9.116;2022-10-22T22:02:58;13.18;;;3.63;;
65535;SDS011;52145;49.342;9.116;2022-10-22T22:05:24;14.68;;;4.03;;
65535;SDS011;52145;49.342;9.116;2022-10-22T22:07:49;9.50;;;3.83;;
65535;SDS011;52145;49.342;9.116;2022-10-22T22:10:15;10.45;;;4.25;;
65535;SDS011;52145;49.342;9.116;2022-10-22T22:12:40;7.82;;;3.60;;
65535;SDS011;52145;49.342;9.116;2022-10-22T22:15:06;18.90;;;4.70;;
65535;SDS011;52145;49.342;9.116;2022-10-22T22:17:32;15.10;;;4.25;;
65535;SDS011;52145;49.342;9.116;2022-10-22T22:19:58;10.50;;;3.53;;
65535;SDS011;52145;49.342;9.116;2022-10-22T22:25:10;20.80;;;5.72;;
65535;SDS011;52145;49.342;9.116;2022-10-22T22:27:36;9.10;;;3.58;;
65535;SDS011;52145;49.342;9.116;2022-10-22T22:30:02;8.20;;;4.03;;
65535;SDS011;52145;49.342;9.116;2022-10-22T22:32:28;7.45;;;3.65;;
65535;SDS011;52145;49.342;9.116;2022-10-22T22:34:54;12.20;;;3.63;;
65535;SDS011;52145;49.342;9.116;2022-10-22T22:37:21;12.15;;;3.60;;
65535;SDS011;52145;49.342;9.116;2022-10-22T22:39:52;13.75;;;4.50;;
65535;SDS011;52145;49.342;9.116;2022-10-22T22:42:37;10.82;;;3.65;;
65535;SDS011;52145;49.342;9.116;2022-10-22T22:45:04;12.85;;;4.28;;
65535;SDS011;52145;49.342;9.116;2022-10-22T22:55:11;42.45;;;7.63;;
65535;SDS011;52145;49.342;9.116;2022-10-22T22:57:38;18.77;;;6.35;;
65535;SDS011;52145;49.342;9.116;2022-10-22T23:00:08;15.60;;;5.47;;
65535;SDS011;52145;49.342;9.116;2022-10-22T23:02:37;12.40;;;4.65;;
65535;SDS011;52145;49.342;9.116;2022-10-22T23:05:05;8.30;;;4.15;;
65535;SDS011;52145;49.342;9.116;2022-10-22T23:07:35;8.88;;;4.07;;
65535;SDS011;52145;49.342;9.116;2022-10-22T23:13:14;7.65;;;3.83;;
65535;SDS011;52145;49.342;9.116;2022-10-22T23:15:43;9.05;;;3.55;;
65535;SDS011;52145;49.342;9.116;2022-10-22T23:18:10;9.82;;;3.47;;
65535;SDS011;52145;49.342;9.116;2022-10-22T23:20:51;9.13;;;3.53;;
65535;SDS011;52145;49.342;9.116;2022-10-22T23:23:48;9.35;;;3.67;;
65535;SDS011;52145;49.342;9.116;2022-10-22T23:27:00;14.43;;;3.67;;
65535;SDS011;52145;49.342;9.116;2022-10-22T23:29:32;11.38;;;3.85;;
65535;SDS011;52145;49.342;9.116;2022-10-22T23:32:02;16.15;;;4.15;;
65535;SDS011;52145;49.342;9.116;2022-10-22T23:37:33;19.92;;;5.07;;
65535;SDS011;52145;49.342;9.116;2022-10-22T23:40:02;17.55;;;5.57;;
65535;SDS011;52145;49.342;9.116;2022-10-22T23:42:28;33.78;;;6.10;;
65535;SDS011;52145;49.342;9.116;2022-10-22T23:44:53;28.48;;;6.05;;
65535;SDS011;52145;49.342;9.116;2022-10-22T23:47:19;24.25;;;5.90;;
65535;SDS011;52145;49.342;9.116;2022-10-22T23:49:44;26.20;;;6.60;;
65535;SDS011;52145;49.342;9.116;2022-10-22T23:52:10;28.52;;;7.38;;
65535;SDS011;52145;49.342;9.116;2022-10-22T23:54:36;41.75;;;7.20;;
65535;SDS011;52145;49.342;9.116;2022-10-22T23:57:01;27.42;;;6.07;;
65535;SDS011;52145;49.342;9.116;2022-10-22T23:59:27;18.73;;;6.00;;
